Time;durP1;ratioP1;P1;durP2;ratioP2;P2;SDS_P1;SDS_P2;PMS_P1;PMS_P2;Temp;Humidity;BMP_temperature;BMP_pressure;BME280_temperature;BME280_humidity;BME280_pressure;Samples;Min_cycle;Max_cycle;Signal;HPM_P1;HPM_P2
2023/08/03 00:00:00;;;;;;;0.00;0.00;;;;;;;16.53;100.00;98945.41;5031061;28;20491;-43
2023/08/03 00:02:27;;;;;;;0.00;0.00;;;;;;;16.54;100.00;98955.19;5031581;28;20109;-46
2023/08/03 00:04:53;;;;;;;0.00;0.00;;;;;;;16.60;100.00;98958.72;5031298;28;20018;-44
2023/08/03 00:07:18;;;;;;;0.00;0.00;;;;;;;16.57;100.00;98964.69;5031998;28;20032;-45
2023/08/03 00:09:46;;;;;;;0.00;0.00;;;;;;;16.57;100.00;98965.50;5050851;28;20044;-45
2023/08/03 00:12:11;;;;;;;;;;;;;;;16.62;100.00;98964.72;5050891;28;20032;-46
2023/08/03 00:14:36;;;;;;;0.00;0.00;;;;;;;16.62;100.00;98970.97;5030672;28;19913;-46
2023/08/03 00:17:02;;;;;;;0.00;0.00;;;;;;;16.64;100.00;98966.09;5030754;28;20103;-45
2023/08/03 00:19:27;;;;;;;0.00;0.00;;;;;;;16.66;100.00;98972.03;5029250;28;20116;-46
2023/08/03 00:21:53;;;;;;;0.00;0.00;;;;;;;16.66;100.00;98973.94;5030909;28;20033;-45
2023/08/03 00:24:18;;;;;;;0.00;0.00;;;;;;;16.69;100.00;98978.84;5048047;28;20025;-44
2023/08/03 00:26:43;;;;;;;0.00;0.00;;;;;;;16.70;100.00;98980.50;5037123;28;20029;-43
2023/08/03 00:29:09;;;;;;;0.00;0.00;;;;;;;16.62;100.00;98978.31;5030594;28;20032;-46
2023/08/03 00:31:34;;;;;;;0.00;0.00;;;;;;;16.62;100.00;98973.69;5031354;28;20030;-51
2023/08/03 00:33:59;;;;;;;0.00;0.00;;;;;;;16.67;100.00;98989.19;5030715;28;20036;-44
2023/08/03 00:36:25;;;;;;;0.00;0.00;;;;;;;16.66;100.00;98982.91;5030357;28;20036;-47
2023/08/03 00:38:50;;;;;;;0.00;0.00;;;;;;;16.72;100.00;98982.91;5044374;28;20392;-46
2023/08/03 00:41:15;;;;;;;0.00;0.00;;;;;;;16.66;100.00;98982.09;5048512;28;20029;-47
2023/08/03 00:43:41;;;;;;;0.00;0.00;;;;;;;16.63;100.00;98988.06;5042856;28;20021;-49
2023/08/03 00:46:07;;;;;;;0.00;0.00;;;;;;;16.59;100.00;98985.09;5041931;28;20353;-46
2023/08/03 00:48:32;;;;;;;0.00;0.00;;;;;;;16.57;100.00;98989.16;5030577;28;20068;-44
2023/08/03 00:50:58;;;;;;;0.00;0.00;;;;;;;16.54;100.00;98987.78;5029747;28;20484;-50
2023/08/03 00:53:23;;;;;;;0.00;0.00;;;;;;;16.58;100.00;98993.47;5038569;28;20037;-47
2023/08/03 00:55:48;;;;;;;0.00;0.00;;;;;;;16.53;100.00;98990.75;5030488;28;20023;-46
2023/08/03 00:58:14;;;;;;;0.00;0.00;;;;;;;16.53;100.00;98997.00;5029922;28;20383;-42
2023/08/03 01:00:39;;;;;;;0.00;0.00;;;;;;;16.53;100.00;98996.19;5030099;28;20391;-47
2023/08/03 01:03:05;;;;;;;0.00;0.00;;;;;;;16.60;100.00;99000.28;5029586;28;20676;-47
2023/08/03 01:05:32;;;;;;;0.00;0.00;;;;;;;16.55;100.00;99005.69;5030721;28;20426;-48
2023/08/03 01:07:58;;;;;;;0.00;0.00;;;;;;;16.54;100.00;99001.34;5036703;28;20049;-46
2023/08/03 01:10:25;;;;;;;0.00;0.00;;;;;;;16.53;100.00;98998.91;5037642;28;20036;-48
2023/08/03 01:12:51;;;;;;;0.00;0.00;;;;;;;16.51;100.00;99003.78;5035003;28;20386;-45
2023/08/03 01:15:16;;;;;;;0.00;0.00;;;;;;;16.51;100.00;99003.78;5050999;28;20020;-49
2023/08/03 01:17:41;;;;;;;0.00;0.00;;;;;;;16.49;100.00;99005.97;5040344;28;20083;-46
2023/08/03 01:20:07;;;;;;;0.00;0.00;;;;;;;16.49;100.00;99003.25;5053946;28;20029;-46
2023/08/03 01:22:43;;;;;;;0.00;0.00;;;;;;;16.50;100.00;99010.28;5053807;28;20025;-46
2023/08/03 01:25:09;;;;;;;0.00;0.00;;;;;;;16.44;100.00;99009.47;5052182;28;20028;-48
2023/08/03 01:27:34;;;;;;;0.00;0.00;;;;;;;16.42;100.00;99012.44;5051467;28;20096;-47
2023/08/03 01:29:59;;;;;;;0.00;0.00;;;;;;;16.43;100.00;99000.50;5053786;28;20352;-45
2023/08/03 01:32:25;;;;;;;0.00;0.00;;;;;;;16.46;100.00;99002.69;5053470;28;20029;-44
2023/08/03 01:34:50;;;;;;;0.00;0.00;;;;;;;16.47;100.00;99003.50;5053484;28;20037;-47
2023/08/03 01:37:18;;;;;;;0.00;0.00;;;;;;;16.42;100.00;99012.44;5052845;28;20032;-44
2023/08/03 01:39:44;;;;;;;;;;;;;;;16.43;100.00;99003.22;5053196;28;20079;-48
2023/08/03 01:42:10;;;;;;;0.00;0.00;;;;;;;16.42;100.00;99011.63;5053113;28;19909;-46
2023/08/03 01:44:36;;;;;;;0.00;0.00;;;;;;;16.47;100.00;99014.34;5053184;28;20021;-46
2023/08/03 01:47:01;;;;;;;0.00;0.00;;;;;;;16.48;100.00;99015.97;5051313;28;20029;-47
2023/08/03 01:49:28;;;;;;;0.00;0.00;;;;;;;16.42;100.00;99012.44;5034615;28;20076;-47
2023/08/03 01:51:54;;;;;;;0.00;0.00;;;;;;;16.42;100.00;99012.44;5033238;28;20075;-43
2023/08/03 01:54:19;;;;;;;0.00;0.00;;;;;;;16.41;100.00;99005.38;5050571;28;20111;-46
2023/08/03 01:56:44;;;;;;;0.00;0.00;;;;;;;16.36;100.00;99012.69;5053327;28;20032;-47
2023/08/03 01:59:10;;;;;;;0.00;0.00;;;;;;;16.31;100.00;99002.63;5052944;28;20409;-45
2023/08/03 02:01:36;;;;;;;0.00;0.00;;;;;;;16.31;100.00;99012.66;5053220;28;20104;-45
2023/08/03 02:04:01;;;;;;;0.00;0.00;;;;;;;16.25;100.00;99014.53;5053138;28;20017;-44
2023/08/03 02:06:27;;;;;;;0.00;0.00;;;;;;;16.17;100.00;99018.56;5051560;28;20029;-45
2023/08/03 02:08:52;;;;;;;0.00;0.00;;;;;;;16.15;100.00;99023.44;5051526;28;20029;-47
2023/08/03 02:11:17;;;;;;;0.00;0.00;;;;;;;16.24;100.00;99021.88;5052630;28;20032;-47
2023/08/03 02:13:43;;;;;;;0.00;0.00;;;;;;;16.26;100.00;99028.91;5052717;28;20362;-48
2023/08/03 02:16:10;;;;;;;0.00;0.00;;;;;;;16.29;100.00;99023.78;5052640;28;20083;-46
2023/08/03 02:18:36;;;;;;;0.00;0.00;;;;;;;16.29;100.00;99031.09;5040716;28;20026;-49
2023/08/03 02:21:01;;;;;;;0.00;0.00;;;;;;;16.18;100.00;99032.94;5032776;28;20033;-46
2023/08/03 02:23:27;;;;;;;0.00;0.00;;;;;;;16.19;100.00;99031.84;5042172;28;20021;-46
2023/08/03 02:25:52;;;;;;;0.00;0.00;;;;;;;16.17;100.00;99034.84;5052028;28;20025;-45
2023/08/03 02:28:18;;;;;;;0.00;0.00;;;;;;;16.15;100.00;99034.28;5041947;28;20033;-46
2023/08/03 02:30:43;;;;;;;0.00;0.00;;;;;;;16.18;100.00;99043.81;5032749;28;20052;-47
2023/08/03 02:33:09;;;;;;;0.00;0.00;;;;;;;16.19;100.00;99048.13;5032158;28;20037;-45
2023/08/03 02:35:37;;;;;;;0.00;0.00;;;;;;;16.24;100.00;99053.59;5032509;28;20104;-46
2023/08/03 02:38:03;;;;;;;0.00;0.00;;;;;;;16.24;100.00;99054.44;5038479;28;20033;-45
2023/08/03 02:40:28;;;;;;;0.00;0.00;;;;;;;16.28;100.00;99056.63;5051246;28;20024;-49
2023/08/03 02:42:54;;;;;;;0.00;0.00;;;;;;;16.33;100.00;99056.66;5052227;28;20029;-46
2023/08/03 02:45:19;;;;;;;0.00;0.00;;;;;;;16.26;100.00;99054.16;5050937;28;20573;-44
2023/08/03 02:47:44;;;;;;;0.00;0.00;;;;;;;16.31;100.00;99067.78;5044017;28;20387;-46
2023/08/03 02:50:10;;;;;;;0.00;0.00;;;;;;;16.32;100.00;99072.09;5031940;28;20063;-45
2023/08/03 02:52:35;;;;;;;0.00;0.00;;;;;;;16.29;100.00;99075.34;5033193;28;20021;-48
2023/08/03 02:55:00;;;;;;;0.00;0.00;;;;;;;16.33;100.00;99081.09;5052124;28;20031;-48
2023/08/03 02:57:26;;;;;;;0.00;0.00;;;;;;;16.35;100.00;99093.31;5034682;28;20028;-46
2023/08/03 02:59:51;;;;;;;0.00;0.00;;;;;;;16.35;100.00;99087.91;5031475;28;20448;-46
2023/08/03 03:02:16;;;;;;;0.00;0.00;;;;;;;16.34;100.00;99096.28;5031964;28;20033;-46
2023/08/03 03:04:42;;;;;;;0.00;0.00;;;;;;;16.31;100.00;99099.53;5032184;28;20026;-48
2023/08/03 03:07:08;;;;;;;0.00;0.00;;;;;;;16.33;100.00;99089.22;5033006;28;20138;-47
2023/08/03 03:09:34;;;;;;;0.00;0.00;;;;;;;16.34;100.00;99091.66;5051234;28;20025;-45
2023/08/03 03:11:59;;;;;;;0.00;0.00;;;;;;;16.38;100.00;99091.97;5051504;28;20083;-46
2023/08/03 03:14:24;;;;;;;0.00;0.00;;;;;;;16.37;100.00;99099.28;5051560;28;20033;-46
2023/08/03 03:16:50;;;;;;;0.00;0.00;;;;;;;16.28;100.00;99091.91;5051168;28;20028;-43
2023/08/03 03:19:15;;;;;;;0.00;0.00;;;;;;;16.26;100.00;99089.44;5050710;28;20028;-44
2023/08/03 03:21:40;;;;;;;0.00;0.00;;;;;;;16.27;100.00;99080.22;5051572;28;20021;-45
2023/08/03 03:24:06;;;;;;;0.00;0.00;;;;;;;16.27;100.00;99088.34;5050982;28;20078;-42
2023/08/03 03:26:31;;;;;;;0.00;0.00;;;;;;;16.27;100.00;99091.06;5051180;28;20116;-44
2023/08/03 03:28:56;;;;;;;0.00;0.00;;;;;;;16.30;100.00;99101.44;5050468;28;20120;-48
2023/08/03 03:31:22;;;;;;;0.00;0.00;;;;;;;16.28;100.00;99098.16;5051462;28;20388;-46
2023/08/03 03:33:47;;;;;;;0.00;0.00;;;;;;;16.34;100.00;99107.97;5051223;28;20031;-47
2023/08/03 03:36:12;;;;;;;0.00;0.00;;;;;;;16.39;100.00;99108.00;5049685;28;20111;-44
2023/08/03 03:38:38;;;;;;;0.00;0.00;;;;;;;16.39;100.00;99112.59;5049879;28;20021;-47
2023/08/03 03:41:03;;;;;;;0.00;0.00;;;;;;;16.35;100.00;99120.47;5050718;28;20496;-49
2023/08/03 03:43:29;;;;;;;0.00;0.00;;;;;;;16.42;100.00;99115.59;5043793;28;20086;-45
2023/08/03 03:45:54;;;;;;;0.00;0.00;;;;;;;16.40;100.00;99120.50;5029787;28;20029;-44
2023/08/03 03:48:20;;;;;;;0.00;0.00;;;;;;;16.45;100.00;99123.22;5030980;28;20033;-48
2023/08/03 03:50:45;;;;;;;0.00;0.00;;;;;;;16.48;100.00;99134.66;5030923;28;20029;-47
2023/08/03 03:53:10;;;;;;;0.00;0.00;;;;;;;16.45;100.00;99131.38;5035421;28;20695;-47
2023/08/03 03:55:36;;;;;;;0.00;0.00;;;;;;;16.49;100.00;99136.31;5030632;28;20389;-46
2023/08/03 03:58:02;;;;;;;0.00;0.00;;;;;;;16.48;100.00;99145.50;5030506;28;20056;-45
2023/08/03 04:00:28;;;;;;;0.00;0.00;;;;;;;16.46;100.00;99146.59;5031085;28;20108;-44
2023/08/03 04:02:53;;;;;;;0.00;0.00;;;;;;;16.47;100.00;99152.84;5030544;28;20109;-46
2023/08/03 04:05:19;;;;;;;0.00;0.00;;;;;;;16.37;100.00;99167.16;5031168;28;20112;-45
2023/08/03 04:07:44;;;;;;;0.00;0.00;;;;;;;16.38;100.00;99162.56;5035160;28;20111;-43
2023/08/03 04:10:09;;;;;;;0.00;0.00;;;;;;;16.35;100.00;99158.47;5051326;28;20031;-43
2023/08/03 04:12:35;;;;;;;0.00;0.00;;;;;;;16.33;100.00;99171.50;5053408;28;20029;-44
2023/08/03 04:15:00;;;;;;;0.00;0.00;;;;;;;16.34;100.00;99169.59;5035817;28;20033;-43
2023/08/03 04:17:26;;;;;;;0.00;0.00;;;;;;;16.34;100.00;99170.41;5047325;28;20379;-45
2023/08/03 04:19:51;;;;;;;0.00;0.00;;;;;;;16.36;100.00;99172.88;5045086;28;20049;-45
2023/08/03 04:22:16;;;;;;;0.00;0.00;;;;;;;16.31;100.00;99179.06;5032423;28;20029;-43
2023/08/03 04:24:42;;;;;;;0.00;0.00;;;;;;;16.32;100.00;99177.16;5032814;28;20036;-45
2023/08/03 04:27:07;;;;;;;0.00;0.00;;;;;;;16.30;100.00;99188.31;5043206;28;20033;-46
2023/08/03 04:29:32;;;;;;;0.00;0.00;;;;;;;16.29;100.00;99183.94;5051370;28;20025;-45
2023/08/03 04:31:58;;;;;;;0.00;0.00;;;;;;;16.25;100.00;99188.25;5040942;28;20038;-46
2023/08/03 04:34:23;;;;;;;0.00;0.00;;;;;;;16.22;100.00;99194.22;5030492;28;20499;-46
2023/08/03 04:36:49;;;;;;;0.00;0.00;;;;;;;16.18;100.00;99196.63;5039792;28;20029;-46
2023/08/03 04:39:15;;;;;;;0.00;0.00;;;;;;;16.20;100.00;99199.88;5043091;28;20021;-44
2023/08/03 04:41:40;;;;;;;0.00;0.00;;;;;;;16.08;100.00;99201.94;5038288;28;20030;-44
2023/08/03 04:44:05;;;;;;;0.00;0.00;;;;;;;16.12;100.00;99213.94;5046082;28;20380;-45
2023/08/03 04:46:31;;;;;;;0.00;0.00;;;;;;;16.10;100.00;99223.41;5039038;28;20099;-46
2023/08/03 04:48:57;;;;;;;0.00;0.00;;;;;;;16.12;100.00;99232.13;5030319;28;20057;-47
2023/08/03 04:51:23;;;;;;;0.00;0.00;;;;;;;16.11;100.00;99216.91;5034582;28;20037;-44
2023/08/03 04:53:48;;;;;;;0.00;0.00;;;;;;;16.10;100.00;99220.69;5044816;28;20179;-44
2023/08/03 04:56:13;;;;;;;0.00;0.00;;;;;;;16.12;100.00;99218.56;5034740;28;20388;-48
2023/08/03 04:58:39;;;;;;;0.00;0.00;;;;;;;16.16;100.00;99214.22;5034517;28;20045;-46
2023/08/03 05:01:04;;;;;;;0.00;0.00;;;;;;;16.17;100.00;99215.88;5034507;28;20024;-43
2023/08/03 05:03:29;;;;;;;0.00;0.00;;;;;;;16.16;100.00;99222.38;5034262;28;20026;-47
2023/08/03 05:05:55;;;;;;;0.00;0.00;;;;;;;16.18;100.00;99225.66;5034200;28;20110;-46
2023/08/03 05:08:22;;;;;;;0.00;0.00;;;;;;;16.16;100.00;99225.09;5046593;28;20377;-43
2023/08/03 05:10:48;;;;;;;0.00;0.00;;;;;;;16.15;100.00;99229.69;5054555;28;20428;-45
2023/08/03 05:13:16;;;;;;;0.00;0.00;;;;;;;16.15;100.00;99218.03;5054410;28;20108;-46
2023/08/03 05:15:41;;;;;;;0.00;0.00;;;;;;;16.15;100.00;99229.69;5054072;28;20033;-47
2023/08/03 05:18:06;;;;;;;0.00;0.00;;;;;;;16.16;100.00;99233.22;5053974;28;20075;-44
2023/08/03 05:20:32;;;;;;;0.00;0.00;;;;;;;16.12;100.00;99227.50;5054036;28;20070;-44
2023/08/03 05:22:57;;;;;;;0.00;0.00;;;;;;;16.16;100.00;99225.09;5053580;28;20376;-48
2023/08/03 05:25:23;;;;;;;0.00;0.00;;;;;;;16.17;100.00;99226.75;5054010;28;20025;-47
2023/08/03 05:27:48;;;;;;;0.00;0.00;;;;;;;16.21;100.00;99234.09;5053891;28;20415;-48
2023/08/03 05:30:14;;;;;;;0.00;0.00;;;;;;;16.25;100.00;99234.41;5053673;28;20032;-48
2023/08/03 05:32:39;;;;;;;0.00;0.00;;;;;;;16.32;100.00;99240.41;5053883;28;20023;-43
2023/08/03 05:35:05;;;;;;;0.00;0.00;;;;;;;16.37;100.00;99240.47;5044460;28;20033;-45
2023/08/03 05:37:30;;;;;;;0.00;0.00;;;;;;;16.41;100.00;99249.75;5036341;28;20032;-43
2023/08/03 05:39:55;;;;;;;0.00;0.00;;;;;;;16.49;100.00;99247.63;5033627;28;20253;-47
2023/08/03 05:42:21;;;;;;;0.00;0.00;;;;;;;16.54;100.00;99251.19;5050097;28;20032;-44
2023/08/03 05:44:46;;;;;;;0.00;0.00;;;;;;;16.59;100.00;99253.16;5049727;28;20028;-44
2023/08/03 05:47:15;;;;;;;0.00;0.00;;;;;;;16.64;100.00;99269.47;5051809;28;20383;-44
2023/08/03 05:49:40;;;;;;;0.00;0.00;;;;;;;16.60;100.00;99268.34;5050413;28;20570;-44
2023/08/03 05:52:09;;;;;;;0.00;0.00;;;;;;;16.54;100.00;99272.94;5051512;28;20066;-49
2023/08/03 05:54:35;;;;;;;0.00;0.00;;;;;;;16.56;100.00;99278.94;5051779;28;20078;-49
2023/08/03 05:57:00;;;;;;;0.00;0.00;;;;;;;16.57;100.00;99271.59;5052045;28;20032;-46
2023/08/03 05:59:26;;;;;;;0.00;0.00;;;;;;;16.58;100.00;99284.91;5051854;28;20053;-45
2023/08/03 06:01:52;;;;;;;0.00;0.00;;;;;;;16.58;100.00;99292.22;5051465;28;20184;-47
2023/08/03 06:04:17;;;;;;;0.00;0.00;;;;;;;16.61;100.00;99286.28;5052519;28;20037;-46
2023/08/03 06:06:44;;;;;;;0.00;0.00;;;;;;;16.58;100.00;99294.94;5049727;28;20509;-47
2023/08/03 06:09:11;;;;;;;0.00;0.00;;;;;;;16.59;100.00;99302.03;5038414;28;20075;-47
2023/08/03 06:11:36;;;;;;;0.00;0.00;;;;;;;16.65;100.00;99311.84;5049662;28;20090;-47
2023/08/03 06:14:02;;;;;;;0.00;0.00;;;;;;;16.70;100.00;99311.91;5043078;28;20030;-46
2023/08/03 06:16:27;;;;;;;0.00;0.00;;;;;;;16.74;100.00;99333.91;5040029;28;20068;-45
2023/08/03 06:18:54;;;;;;;0.00;0.00;;;;;;;16.78;100.00;99341.34;5040941;28;20100;-46
2023/08/03 06:21:23;;;;;;;0.00;0.00;;;;;;;16.81;100.00;99351.69;5040422;28;20480;-44
2023/08/03 06:23:51;;;;;;;0.00;0.00;;;;;;;16.85;100.00;99352.81;5042459;28;20025;-46
2023/08/03 06:26:16;;;;;;;;;;;;;;;16.93;100.00;99353.38;5041233;28;20017;-46
2023/08/03 06:28:45;;;;;;;0.00;0.00;;;;;;;17.00;100.00;99364.88;5042313;28;19930;-44
2023/08/03 06:31:16;;;;;;;0.00;0.00;;;;;;;16.98;100.00;99354.28;5040243;28;20116;-45
2023/08/03 06:33:43;;;;;;;0.00;0.00;;;;;;;17.01;100.00;99363.78;5039220;28;20032;-47
2023/08/03 06:36:12;;;;;;;0.00;0.00;;;;;;;17.05;100.00;99371.16;5043810;28;20036;-46
2023/08/03 06:38:37;;;;;;;0.00;0.00;;;;;;;17.08;100.00;99375.25;5042238;28;20022;-47
2023/08/03 06:41:02;;;;;;;0.00;0.00;;;;;;;17.11;100.00;99380.16;5042140;28;20032;-46
2023/08/03 06:43:28;;;;;;;0.00;0.00;;;;;;;17.18;100.00;99375.31;5043930;28;20073;-46
2023/08/03 06:45:54;;;;;;;0.00;0.00;;;;;;;17.21;100.00;99388.38;5043973;28;20071;-45
2023/08/03 06:48:19;;;;;;;0.00;0.00;;;;;;;17.26;100.00;99391.16;5040769;28;20106;-46
2023/08/03 06:50:45;;;;;;;0.00;0.00;;;;;;;17.28;100.00;99394.44;5043561;28;20040;-47
2023/08/03 06:53:11;;;;;;;0.00;0.00;;;;;;;17.34;100.00;99404.25;5042407;28;20021;-46
2023/08/03 06:55:36;;;;;;;0.00;0.00;;;;;;;17.40;100.00;99409.72;5042421;28;20026;-45
2023/08/03 06:58:02;;;;;;;0.00;0.00;;;;;;;17.42;100.00;99421.16;5040714;28;20118;-46
2023/08/03 07:00:27;;;;;;;0.00;0.00;;;;;;;17.42;100.00;99419.25;5047878;28;20544;-47
2023/08/03 07:02:53;;;;;;;0.00;0.00;;;;;;;17.48;100.00;99423.69;5041046;28;20040;-47
2023/08/03 07:05:18;;;;;;;0.00;0.00;;;;;;;17.57;100.00;99426.72;5042530;28;20373;-46
2023/08/03 07:07:43;;;;;;;0.00;0.00;;;;;;;17.57;100.00;99428.63;5040664;28;20506;-47
2023/08/03 07:10:09;;;;;;;0.00;0.00;;;;;;;17.63;100.00;99433.00;5042646;28;20044;-45
2023/08/03 07:12:35;;;;;;;0.00;0.00;;;;;;;17.70;100.00;99445.28;5042750;28;20029;-46
2023/08/03 07:15:00;;;;;;;0.00;0.00;;;;;;;17.71;100.00;99449.66;5032288;28;20029;-43
2023/08/03 07:17:26;;;;;;;0.00;0.00;;;;;;;17.69;100.00;99456.44;5032385;28;20622;-45
2023/08/03 07:19:51;;;;;;;0.00;0.00;;;;;;;17.69;100.00;99465.44;5032455;28;20056;-46
2023/08/03 07:22:23;;;;;;;0.00;0.00;;;;;;;17.70;100.00;99480.66;5034765;28;20025;-45
2023/08/03 07:24:48;;;;;;;0.00;0.00;;;;;;;17.75;100.00;99475.25;5040330;28;20369;-46
2023/08/03 07:27:14;;;;;;;0.00;0.00;;;;;;;17.83;100.00;99482.16;5033926;28;20029;-44
2023/08/03 07:29:40;;;;;;;0.00;0.00;;;;;;;17.91;100.00;99491.72;5014876;28;20036;-45
2023/08/03 07:32:06;;;;;;;0.00;0.00;;;;;;;18.07;100.00;99496.16;5032625;28;20025;-46
2023/08/03 07:34:31;;;;;;;0.00;0.00;;;;;;;18.09;100.00;99502.16;5032126;28;20018;-45
2023/08/03 07:36:57;;;;;;;0.00;0.00;;;;;;;18.31;100.00;99498.44;5038122;28;20104;-44
2023/08/03 07:39:23;;;;;;;0.00;0.00;;;;;;;19.17;100.00;99513.41;5046999;28;20382;-43
2023/08/03 07:41:49;;;;;;;0.00;0.00;;;;;;;19.63;100.00;99503.34;5046527;28;20025;-43
2023/08/03 07:44:18;;;;;;;0.00;0.00;;;;;;;20.28;100.00;99498.03;5051131;28;20095;-45
2023/08/03 07:46:44;;;;;;;0.00;0.00;;;;;;;21.06;100.00;99488.34;5035011;28;20040;-46
2023/08/03 07:49:09;;;;;;;0.00;0.00;;;;;;;21.66;100.00;99488.16;5030623;28;20029;-44
2023/08/03 07:51:35;;;;;;;0.00;0.00;;;;;;;21.54;100.00;99494.03;5031694;28;20041;-45
2023/08/03 07:54:00;;;;;;;0.00;0.00;;;;;;;21.16;100.00;99491.00;5041924;28;20083;-46
2023/08/03 07:56:26;;;;;;;0.00;0.00;;;;;;;20.73;100.00;99511.81;5047294;28;20521;-44
2023/08/03 07:58:51;;;;;;;0.00;0.00;;;;;;;20.35;100.00;99522.31;5034819;28;20136;-46
2023/08/03 08:01:17;;;;;;;0.00;0.00;;;;;;;20.08;100.00;99541.78;5041313;28;20027;-47
2023/08/03 08:03:43;;;;;;;0.00;0.00;;;;;;;19.90;100.00;99551.38;5048527;28;20028;-45
2023/08/03 08:06:19;;;;;;;0.00;0.00;;;;;;;19.72;100.00;99555.47;5033724;28;20131;-46
2023/08/03 08:08:46;;;;;;;0.00;0.00;;;;;;;19.58;100.00;99559.84;5040297;28;20395;-46
2023/08/03 08:11:13;;;;;;;0.00;0.00;;;;;;;19.70;100.00;99574.88;5041178;28;20044;-44
2023/08/03 08:13:38;;;;;;;0.00;0.00;;;;;;;20.13;100.00;99583.56;5046149;28;20108;-46
2023/08/03 08:16:05;;;;;;;0.00;0.00;;;;;;;20.56;100.00;99570.38;5030015;28;20030;-46
2023/08/03 08:18:31;;;;;;;0.00;0.00;;;;;;;20.77;100.00;99570.28;5038560;28;20029;-47
2023/08/03 08:21:05;;;;;;;0.00;0.00;;;;;;;20.50;100.00;99576.09;5047577;28;20128;-49
2023/08/03 08:23:31;;;;;;;0.00;0.00;;;;;;;20.13;100.00;99593.69;5041395;28;20033;-45
2023/08/03 08:25:56;;;;;;;0.00;0.00;;;;;;;19.79;100.00;99609.81;5047447;28;20032;-47
2023/08/03 08:28:22;;;;;;;0.00;0.00;;;;;;;19.43;100.00;99634.31;5041798;28;20109;-47
2023/08/03 08:30:47;;;;;;;0.00;0.00;;;;;;;19.13;100.00;99645.97;5041546;28;20032;-45
2023/08/03 08:33:14;;;;;;;0.00;0.00;;;;;;;18.74;100.00;99651.75;5046923;28;20040;-47
2023/08/03 08:35:39;;;;;;;0.00;0.00;;;;;;;18.49;100.00;99666.91;5040080;28;20029;-45
2023/08/03 08:38:05;;;;;;;0.00;0.00;;;;;;;18.36;100.00;99687.25;5033812;28;20507;-45
2023/08/03 08:40:34;;;;;;;0.00;0.00;;;;;;;18.33;100.00;99690.50;5050114;28;20147;-45
2023/08/03 08:43:00;;;;;;;0.00;0.00;;;;;;;18.45;100.00;99694.91;5040959;28;20021;-46
2023/08/03 08:45:25;;;;;;;0.00;0.00;;;;;;;19.10;100.00;99722.88;5051544;28;20025;-46
2023/08/03 08:47:51;;;;;;;0.00;0.00;;;;;;;19.56;100.00;99714.84;5037180;28;20082;-44
2023/08/03 08:50:16;;;;;;;0.00;0.00;;;;;;;19.83;100.00;99696.38;5030638;28;20033;-44
2023/08/03 08:52:43;;;;;;;0.00;0.00;;;;;;;20.01;100.00;99689.56;5047445;28;20025;-46
2023/08/03 08:55:16;;;;;;;0.00;0.00;;;;;;;20.16;100.00;99686.00;5048965;28;20047;-45
2023/08/03 08:57:42;;;;;;;0.00;0.00;;;;;;;20.35;100.00;99687.09;5038165;28;20263;-45
2023/08/03 09:00:08;;;;;;;0.00;0.00;;;;;;;20.27;100.00;99678.63;5039818;28;20028;-45
2023/08/03 09:02:35;;;;;;;0.00;0.00;;;;;;;20.42;100.00;99696.91;5043285;28;20033;-48
2023/08/03 09:05:10;;;;;;;0.00;0.00;;;;;;;20.60;100.00;99707.31;5049111;28;20040;-49
2023/08/03 09:07:36;;;;;;;0.00;0.00;;;;;;;20.54;100.00;99694.75;5050836;28;20029;-46
2023/08/03 09:10:02;;;;;;;0.00;0.00;;;;;;;20.17;100.00;99714.97;5050852;28;20108;-46
2023/08/03 09:12:27;;;;;;;0.00;0.00;;;;;;;20.10;100.00;99717.16;5050555;28;20411;-44
2023/08/03 09:14:53;;;;;;;0.00;0.00;;;;;;;19.92;100.00;99724.78;5051214;28;20025;-45
2023/08/03 09:17:19;;;;;;;0.00;0.00;;;;;;;19.62;100.00;99735.63;5050948;28;20029;-46
2023/08/03 09:19:45;;;;;;;0.00;0.00;;;;;;;19.49;100.00;99745.13;5050457;28;20091;-45
2023/08/03 09:22:11;;;;;;;0.00;0.00;;;;;;;19.36;100.00;99756.53;5050272;28;20033;-46
2023/08/03 09:24:37;;;;;;;0.00;0.00;;;;;;;19.35;100.00;99769.31;5050131;28;20037;-48
2023/08/03 09:27:02;;;;;;;0.00;0.00;;;;;;;19.27;100.00;99767.97;5050562;28;20032;-48
2023/08/03 09:29:30;;;;;;;0.00;0.00;;;;;;;19.16;100.00;99779.06;5048621;28;20033;-50
2023/08/03 09:32:06;;;;;;;0.00;0.00;;;;;;;19.17;100.00;99783.44;5050352;28;20456;-46
2023/08/03 09:34:39;;;;;;;0.00;0.00;;;;;;;19.17;100.00;99788.88;5050448;28;20100;-45
2023/08/03 09:37:06;;;;;;;0.00;0.00;;;;;;;19.20;100.00;99799.28;5052707;28;20480;-46
2023/08/03 09:39:36;;;;;;;0.00;0.00;;;;;;;19.44;100.00;99805.94;5053999;28;20486;-46
2023/08/03 09:42:06;;;;;;;0.00;0.00;;;;;;;19.47;100.00;99804.59;5054033;28;20475;-43
2023/08/03 09:44:34;;;;;;;0.00;0.00;;;;;;;19.41;100.00;99809.22;5054239;28;20052;-46
2023/08/03 09:47:01;;;;;;;0.00;0.00;;;;;;;19.42;100.00;99820.94;5054477;28;20028;-44
2023/08/03 09:49:27;;;;;;;0.00;0.00;;;;;;;19.15;100.00;99841.00;5054163;28;20032;-46
2023/08/03 09:51:56;;;;;;;0.00;0.00;;;;;;;19.18;100.00;99828.72;5054451;28;20032;-46
2023/08/03 09:54:39;;;;;;;0.00;0.00;;;;;;;19.19;100.00;99842.09;5052151;28;20135;-46
2023/08/03 09:57:08;;;;;;;0.00;0.00;;;;;;;19.24;100.00;99841.31;5054361;28;20021;-45
2023/08/03 09:59:36;;;;;;;0.00;0.00;;;;;;;19.33;100.00;99856.09;5053872;28;20049;-44
2023/08/03 10:02:02;;;;;;;0.00;0.00;;;;;;;19.38;100.00;99858.00;5052534;28;20475;-50
2023/08/03 10:04:30;;;;;;;0.00;0.00;;;;;;;19.15;100.00;99873.72;5053715;28;20086;-46
2023/08/03 10:07:00;;;;;;;0.00;0.00;;;;;;;18.83;100.00;99884.66;5054048;28;20112;-49
2023/08/03 10:09:28;;;;;;;0.00;0.00;;;;;;;18.53;100.00;99899.59;5052806;28;20027;-44
2023/08/03 10:11:54;;;;;;;;;;;;;;;18.25;100.00;99929.84;5054617;28;20078;-45
2023/08/03 10:14:32;;;;;;;0.00;0.00;;;;;;;17.99;100.00;99943.13;5056851;28;19986;-40
2023/08/03 10:17:00;;;;;;;0.00;0.00;;;;;;;17.67;100.00;99951.13;5054656;28;20029;-45
2023/08/03 10:19:27;;;;;;;0.00;0.00;;;;;;;17.43;100.00;99962.19;5052756;28;20495;-46
2023/08/03 10:21:53;;;;;;;0.00;0.00;;;;;;;17.16;100.00;99966.63;5050772;28;20040;-46
2023/08/03 10:24:18;;;;;;;0.00;0.00;;;;;;;17.10;100.00;99982.03;5052789;28;20051;-46
2023/08/03 10:26:49;;;;;;;0.00;0.00;;;;;;;17.06;100.00;99989.88;5052425;28;20035;-47
2023/08/03 10:29:15;;;;;;;0.00;0.00;;;;;;;17.01;100.00;100007.97;5053092;28;20036;-47
2023/08/03 10:31:54;;;;;;;0.00;0.00;;;;;;;16.92;100.00;100015.69;5051483;28;20039;-47
2023/08/03 10:34:39;;;;;;;0.00;0.00;;;;;;;16.88;100.00;100028.16;5053144;28;20406;-48
2023/08/03 10:37:11;;;;;;;0.10;0.00;;;;;;;16.91;100.00;100029.56;5053508;28;20036;-52
2023/08/03 10:40:00;;;;;;;0.00;0.00;;;;;;;16.97;100.00;100053.03;5053028;28;20471;-46
2023/08/03 10:42:34;;;;;;;0.00;0.00;;;;;;;16.87;100.00;100051.75;5052724;28;20029;-47
2023/08/03 10:45:23;;;;;;;0.00;0.00;;;;;;;16.79;100.00;100063.00;5052684;28;20029;-46
2023/08/03 10:47:49;;;;;;;0.00;0.00;;;;;;;16.72;100.00;100059.59;5050807;28;20117;-47
2023/08/03 10:50:14;;;;;;;0.13;0.00;;;;;;;16.74;100.00;100068.31;5052405;28;20032;-47
2023/08/03 10:52:39;;;;;;;0.00;0.00;;;;;;;16.77;100.00;100065.19;5052715;28;20506;-46
2023/08/03 10:55:22;;;;;;;0.00;0.00;;;;;;;16.78;100.00;100083.13;5052604;28;20025;-49
2023/08/03 10:57:48;;;;;;;0.00;0.00;;;;;;;16.75;100.00;100090.91;5052672;28;20028;-49
2023/08/03 11:00:13;;;;;;;0.00;0.00;;;;;;;16.80;100.00;100091.03;5051550;28;20464;-48
2023/08/03 11:02:42;;;;;;;0.00;0.00;;;;;;;16.86;100.00;100096.31;5052061;28;20024;-49
2023/08/03 11:05:10;;;;;;;0.00;0.00;;;;;;;16.77;100.00;100105.06;5052087;28;20037;-48
2023/08/03 11:07:40;;;;;;;0.00;0.00;;;;;;;16.78;100.00;100113.00;5050982;28;20060;-47
2023/08/03 11:10:09;;;;;;;0.00;0.00;;;;;;;16.73;100.00;100123.75;5051565;28;20037;-46
2023/08/03 11:12:35;;;;;;;0.00;0.00;;;;;;;16.84;100.00;100132.97;5051939;28;20031;-48
2023/08/03 11:15:02;;;;;;;0.00;0.00;;;;;;;16.92;100.00;100129.03;5051996;28;20111;-45
2023/08/03 11:17:30;;;;;;;0.00;0.00;;;;;;;17.02;100.00;100129.25;5052111;28;20123;-45
2023/08/03 11:19:57;;;;;;;0.00;0.00;;;;;;;17.12;100.00;100140.31;5050717;28;20442;-45
2023/08/03 11:22:23;;;;;;;0.00;0.00;;;;;;;17.32;100.00;100139.88;5051628;28;20021;-48